avis per tempestes more information blitzortung!


avis per Pluja more information rain snow radar


Visita la nostra xarxa de llocs de meteo:

Template documentation
and downloads

And another site



Rain From: 17-08-2018 13:00 Until: 22:59 warning for: Rain Level: Orange info button
Thunderstorms From: 17-08-2018 12:00 Until: 18-08-2018 08:59 warning for: Thunderstorms Level: Yellow info button

Pagina Historial Weather Underground text

Diari Resum Novembre 17, 2017 Unitats:  Mètric    Imperial   Tant
« Previous Dia
SegĂźent Dia »
Diari Setmana Mensual Anual Personalitzada
  Maxima: Minima: Media:
Temperatura: -17.8 °C -15.8 °C -11.1 °C
Punt de rosada: -17.8 °C -19.8 °C -17.4 °C
Humitat: Humidity % 39 % 45 %
Wind Speed: 0 km/h 0 km/h 4 km/h
RĂ fegues de vent: 0 km/h - -
Vent:- - SSE
Pression baro: 0 hPa 34462.7 hPa -
Precipitacions: 0 mm    
Historical Graphs
 
 
Dades de taula per Novembre 17, 2017
Temps Temperatura Punt de rosada Pression baro Vent Wind Speed RĂ fegues de vent Humitat Rainfall Rate (Hourly)
-17.8 °C -17.8 °C 0 hPa Calm     Humidity % 0 mm
00:00 -14 °C -18.7 °C 34567.7 hPa NNE 6 km/h 6 km/h 55 % 0 mm
00:05 -14.1 °C -18.8 °C 34567.7 hPa Calm     55 % 0 mm
00:15 -15.7 °C -19.8 °C 34533.8 hPa WNW 2.6 km/h 5.1 km/h 59 % 0 mm
00:25 -15.7 °C -19.8 °C 34533.8 hPa WNW 5.1 km/h 5.1 km/h 59 % 0 mm
00:35 -15.8 °C -19.7 °C 34533.8 hPa Calm   5.1 km/h 60 % 0 mm
00:45 -15.8 °C -19.7 °C 34533.8 hPa Calm   5.1 km/h 60 % 0 mm
00:55 -15.8 °C -19.7 °C 34533.8 hPa West 2.6 km/h 5.1 km/h 60 % 0 mm
01:05 -15.8 °C -19.7 °C 34533.8 hPa WSW 2.6 km/h 5.1 km/h 60 % 0 mm
01:15 -15.8 °C -19.8 °C 34533.8 hPa WSW 2.6 km/h 5.1 km/h 60 % 0 mm
01:25 -15.6 °C -19.7 °C 34533.8 hPa West 2.6 km/h 5.1 km/h 59 % 0 mm
01:35 -15.6 °C -19.6 °C 34533.8 hPa Calm   5.1 km/h 59 % 0 mm
01:45 -15.7 °C -19.6 °C 34533.8 hPa Calm   5.1 km/h 60 % 0 mm
01:55 -15.6 °C -19.6 °C 34533.8 hPa Calm   5.1 km/h 59 % 0 mm
02:05 -15.5 °C -19.6 °C 34533.8 hPa Calm   5.1 km/h 59 % 0 mm
02:15 -15.3 °C -19.3 °C 34533.8 hPa NW 2.6 km/h   59 % 0 mm
02:25 -15.3 °C -19.3 °C 34496.6 hPa Calm   5.1 km/h 59 % 0 mm
02:35 -15.2 °C -19.3 °C 34496.6 hPa West 5.1 km/h 7.7 km/h 59 % 0 mm
02:45 -14.9 °C -19.1 °C 34533.8 hPa WSW 2.6 km/h 5.1 km/h 59 % 0 mm
02:55 -14.6 °C -18.8 °C 34533.8 hPa WSW 2.6 km/h 5.1 km/h 58 % 0 mm
03:05 -13.9 °C -18.2 °C 34533.8 hPa Calm   2.6 km/h 58 % 0 mm
03:15 -13.7 °C -18.1 °C 34533.8 hPa NW 2.6 km/h 7.7 km/h 57 % 0 mm
03:25 -13.5 °C -18.1 °C 34567.7 hPa NNE 2.6 km/h 7.7 km/h 56 % 0 mm
03:35 -13.3 °C -17.9 °C 34567.7 hPa NE 2.6 km/h 7.7 km/h 56 % 0 mm
03:45 -13 °C -17.7 °C 34533.8 hPa NE 2.6 km/h 5.1 km/h 55 % 0 mm
03:55 -12.8 °C -17.7 °C 34567.7 hPa NE 7.7 km/h 7.7 km/h 54 % 0 mm
04:05 -12.9 °C -17.8 °C 34567.7 hPa NE 2.6 km/h 7.7 km/h 54 % 0 mm
04:15 -12.7 °C -17.7 °C 34567.7 hPa NE 2.6 km/h 5.1 km/h 53 % 0 mm
04:25 -12.6 °C -17.6 °C 34567.7 hPa NNE 2.6 km/h 7.7 km/h 53 % 0 mm
04:35 -12.1 °C -17.3 °C 34567.7 hPa NNE 2.6 km/h 5.1 km/h 52 % 0 mm
06:45 -9.2 °C -15.4 °C 34533.8 hPa ESE 2.6 km/h 5.1 km/h 47 % 0 mm
06:55 -9.1 °C -15.2 °C 34533.8 hPa SE 2.6 km/h 7.7 km/h 48 % 0 mm
07:45 -8.7 °C -15.2 °C 34496.6 hPa NNE 2.6 km/h 2.6 km/h 46 % 0 mm
07:55 -8.6 °C -15.3 °C 34496.6 hPa NNE 5.1 km/h 10.3 km/h 45 % 0 mm
10:37 -11.9 °C -17.1 °C 34567.7 hPa NW 3.1 km/h   52 % 0 mm
10:38 -11.9 °C -17.1 °C 34533.8 hPa NW 3.7 km/h 3.7 km/h 52 % 0 mm
10:39 -11.9 °C -17.2 °C 34533.8 hPa NW 6 km/h 6 km/h 52 % 0 mm
10:44 -11.8 °C -17.1 °C 34533.8 hPa North 3.1 km/h 3.1 km/h 52 % 0 mm
10:49 -11.6 °C -17 °C 34567.7 hPa NE 3.1 km/h   51 % 0 mm
10:54 -11.5 °C -16.9 °C 34567.7 hPa ENE 6.8 km/h 6.8 km/h 51 % 0 mm
10:59 -11.5 °C -16.9 °C 34567.7 hPa NE 6 km/h 6 km/h 51 % 0 mm
11:04 -11.3 °C -16.8 °C 34567.7 hPa ENE 6 km/h 6 km/h 51 % 0 mm
11:09 -11.4 °C -16.8 °C 34567.7 hPa East 6.8 km/h 6.8 km/h 51 % 0 mm
11:14 -11.3 °C -16.7 °C 34567.7 hPa NE 6 km/h 6 km/h 51 % 0 mm
11:19 -11.1 °C -16.5 °C 34567.7 hPa NE 4.2 km/h   51 % 0 mm
11:24 -11.2 °C -16.8 °C 34567.7 hPa East 6 km/h 6.8 km/h 50 % 0 mm
11:29 -11.1 °C -16.7 °C 34567.7 hPa ENE 6 km/h 6 km/h 50 % 0 mm
11:34 -10.9 °C -16.5 °C 34567.7 hPa ENE 6 km/h 6.3 km/h 50 % 0 mm
11:39 -10.8 °C -16.6 °C 34567.7 hPa ENE 6 km/h 6 km/h 49 % 0 mm
11:44 -10.7 °C -16.5 °C 34567.7 hPa SE 6 km/h 6 km/h 49 % 0 mm
11:49 -10.6 °C -16.4 °C 34533.8 hPa NNE 6 km/h 6 km/h 49 % 0 mm
11:54 -10.4 °C -16.3 °C 34533.8 hPa NE 6 km/h 6 km/h 49 % 0 mm
11:59 -10.3 °C -16.3 °C 34533.8 hPa ENE 9 km/h 9 km/h 48 % 0 mm
12:04 -10.3 °C -16.3 °C 34533.8 hPa ENE 6 km/h 6 km/h 48 % 0 mm
12:09 -10.1 °C -16.2 °C 34533.8 hPa NE 3.7 km/h 3.7 km/h 48 % 0 mm
12:14 -9.9 °C -15.9 °C 34533.8 hPa East 6 km/h   48 % 0 mm
12:19 -9.6 °C -15.7 °C 34533.8 hPa WSW 3.1 km/h   48 % 0 mm
12:24 -9.4 °C -15.4 °C 34533.8 hPa SE 6 km/h 6 km/h 48 % 0 mm
12:29 -9.4 °C -15.5 °C 34533.8 hPa ESE 6.8 km/h 6.8 km/h 48 % 0 mm
12:58 -8.7 °C -14.9 °C 34533.8 hPa Calm   2.9 km/h 47 % 0 mm
13:03 -8.8 °C -15.1 °C 34533.8 hPa NE 6 km/h 6 km/h 47 % 0 mm
13:08 -8.8 °C -15.2 °C 34533.8 hPa NNE 9.3 km/h 9.3 km/h 46 % 0 mm
13:13 -8.7 °C -15.2 °C 34533.8 hPa NE 6 km/h 6 km/h 46 % 0 mm
13:18 -8.8 °C -15.3 °C 34533.8 hPa North 11.9 km/h 11.9 km/h 46 % 0 mm
13:23 -8.8 °C -15.3 °C 34533.8 hPa ENE 9 km/h 9 km/h 46 % 0 mm
13:28 -8.7 °C -15.2 °C 34533.8 hPa North 6 km/h 6 km/h 46 % 0 mm
13:33 -8.7 °C -15.2 °C 34496.6 hPa NNE 6 km/h 6 km/h 46 % 0 mm
13:57 -8.6 °C -15.2 °C 34496.6 hPa NE 6 km/h 6 km/h 45 % 0 mm
14:02 -8.5 °C -15.3 °C 34496.6 hPa ENE 9 km/h 9 km/h 44 % 0 mm
14:07 -8.4 °C -15.3 °C 34496.6 hPa NNE 11.9 km/h 11.9 km/h 44 % 0 mm
14:22 -8.3 °C -15.4 °C 34496.6 hPa ENE 11.9 km/h 11.9 km/h 43 % 0 mm
14:27 -8.3 °C -15.3 °C 34496.6 hPa NE 9 km/h 9 km/h 43 % 0 mm
14:32 -8.2 °C -15.2 °C 34496.6 hPa ENE 9.3 km/h 9.3 km/h 43 % 0 mm
14:37 -8.1 °C -15.2 °C 34462.7 hPa NNW 6 km/h 6 km/h 43 % 0 mm
14:42 -8.1 °C -15.3 °C 34462.7 hPa ENE 9 km/h 9 km/h 42 % 0 mm
14:47 -7.9 °C -15.2 °C 34462.7 hPa ENE 6 km/h 6 km/h 42 % 0 mm
14:52 -7.9 °C -15.2 °C 34496.6 hPa NE 8 km/h 8 km/h 42 % 0 mm
14:57 -7.8 °C -15.1 °C 34496.6 hPa NNE 9 km/h 9 km/h 42 % 0 mm
15:02 -7.8 °C -15.1 °C 34462.7 hPa NE 9 km/h 9 km/h 42 % 0 mm
15:07 -7.9 °C -15.2 °C 34462.7 hPa ENE 6 km/h 6 km/h 42 % 0 mm
15:12 -7.9 °C -15.2 °C 34462.7 hPa NNW 9 km/h 9 km/h 42 % 0 mm
15:17 -8.1 °C -15.3 °C 34462.7 hPa North 9 km/h 9 km/h 42 % 0 mm
15:22 -8.2 °C -15.4 °C 34496.6 hPa WNW 3.7 km/h 3.7 km/h 42 % 0 mm
15:27 -8.2 °C -15.4 °C 34496.6 hPa North 3.1 km/h 3.1 km/h 42 % 0 mm
15:32 -8.2 °C -15.4 °C 34496.6 hPa NE 6 km/h 6 km/h 42 % 0 mm
15:37 -8.2 °C -15.4 °C 34462.7 hPa NNE 4.2 km/h 4.2 km/h 42 % 0 mm
15:42 -8.1 °C -15.4 °C 34462.7 hPa NNE 6 km/h   42 % 0 mm
15:47 -8.1 °C -15.3 °C 34462.7 hPa NE 3.1 km/h   42 % 0 mm
15:52 -8.1 °C -15.5 °C 34462.7 hPa North 5.1 km/h 5.1 km/h 41 % 0 mm
15:57 -8 °C -15.3 °C 34462.7 hPa Calm     42 % 0 mm
16:02 -8.1 °C -15.5 °C 34462.7 hPa NNW 6 km/h 6 km/h 41 % 0 mm
16:07 -8.1 °C -15.5 °C 34462.7 hPa Calm     41 % 0 mm
16:13 -8 °C -15.4 °C 34462.7 hPa Calm     41 % 0 mm
16:18 -8 °C -15.3 °C 34496.6 hPa NNW 3.1 km/h 3.1 km/h 42 % 0 mm
16:23 -8 °C -15.4 °C 34496.6 hPa Calm     41 % 0 mm
16:28 -8.1 °C -15.5 °C 34496.6 hPa Calm     41 % 0 mm
16:33 -8.1 °C -15.6 °C 34496.6 hPa North 3.1 km/h   41 % 0 mm
16:38 -8.2 °C -15.6 °C 34496.6 hPa North 2.3 km/h   41 % 0 mm
16:43 -8.3 °C -15.7 °C 34496.6 hPa Calm     41 % 0 mm
16:48 -8.3 °C -15.7 °C 34496.6 hPa NW 3.1 km/h 3.1 km/h 41 % 0 mm
16:53 -8.3 °C -15.7 °C 34496.6 hPa North 6 km/h 6 km/h 41 % 0 mm
16:58 -8.4 °C -15.9 °C 34496.6 hPa North 4.2 km/h 4.2 km/h 41 % 0 mm
17:03 -8.5 °C -15.9 °C 34496.6 hPa Calm     41 % 0 mm
17:08 -8.6 °C -16 °C 34496.6 hPa Calm     41 % 0 mm
17:13 -8.7 °C -16.1 °C 34496.6 hPa North 2.3 km/h   41 % 0 mm
17:18 -8.8 °C -16.2 °C 34496.6 hPa Calm     41 % 0 mm
17:23 -8.9 °C -16.3 °C 34496.6 hPa North 3.1 km/h   41 % 0 mm
17:28 -9.1 °C -16.4 °C 34496.6 hPa NNW 3.1 km/h   41 % 0 mm
17:33 -9.2 °C -16.5 °C 34496.6 hPa Calm     41 % 0 mm
17:38 -9.3 °C -16.6 °C 34496.6 hPa West 3.7 km/h 3.7 km/h 41 % 0 mm
17:43 -9.3 °C -16.6 °C 34496.6 hPa Calm     41 % 0 mm
17:48 -9.4 °C -16.9 °C 34496.6 hPa West 3.1 km/h   40 % 0 mm
17:53 -9.4 °C -16.9 °C 34496.6 hPa West 3.1 km/h   40 % 0 mm
17:58 -9.5 °C -17 °C 34496.6 hPa Calm     40 % 0 mm
18:03 -9.6 °C -17.1 °C 34496.6 hPa West 3.1 km/h   40 % 0 mm
18:08 -9.7 °C -17.2 °C 34496.6 hPa WSW 6 km/h 6 km/h 40 % 0 mm
18:13 -9.8 °C -17.3 °C 34496.6 hPa WSW 3.1 km/h   40 % 0 mm
18:18 -9.9 °C -17.3 °C 34496.6 hPa WSW 3.7 km/h   40 % 0 mm
18:23 -10.1 °C -17.5 °C 34496.6 hPa SW 6.3 km/h 6.3 km/h 40 % 0 mm
18:25 -13.2 °C -19.3 °C 34533.8 hPa Calm   2.6 km/h 46 % 0 mm
18:28 -10.1 °C -17.6 °C 34496.6 hPa WSW 6 km/h 6 km/h 40 % 0 mm
18:33 -10.1 °C -17.5 °C 34496.6 hPa SSW 3.1 km/h   40 % 0 mm
18:35 -13.2 °C -19.3 °C 34533.8 hPa West 2.6 km/h 5.1 km/h 46 % 0 mm
18:38 -10.1 °C -17.6 °C 34496.6 hPa SW 3.7 km/h 3.7 km/h 40 % 0 mm
18:43 -10.1 °C -17.5 °C 34496.6 hPa SW 8 km/h 8 km/h 40 % 0 mm
18:45 -13.2 °C -19.3 °C 34533.8 hPa WSW 2.6 km/h 5.1 km/h 46 % 0 mm
18:48 -10 °C -17.7 °C 34496.6 hPa WSW 6 km/h 6 km/h 39 % 0 mm
18:53 -10 °C -17.7 °C 34496.6 hPa West 11.9 km/h 11.9 km/h 39 % 0 mm
18:55 -13.3 °C -19.2 °C 34496.6 hPa Calm   5.1 km/h 47 % 0 mm
19:03 -10.2 °C -17.6 °C 34496.6 hPa WSW 6 km/h 6 km/h 40 % 0 mm
19:05 -13.4 °C -19.3 °C 34496.6 hPa Calm     47 % 0 mm
19:08 -10.3 °C -17.7 °C 34496.6 hPa WSW 3.1 km/h 3.1 km/h 40 % 0 mm
19:13 -10.4 °C -18 °C 34496.6 hPa Calm     39 % 0 mm
19:15 -13.5 °C -19.2 °C 34496.6 hPa SW 5.1 km/h 5.1 km/h 48 % 0 mm
19:18 -10.6 °C -18.2 °C 34496.6 hPa WSW 6.3 km/h   39 % 0 mm
19:23 -10.6 °C -18 °C 34496.6 hPa WSW 7.6 km/h 7.6 km/h 40 % 0 mm
19:25 -13.6 °C -19.3 °C 34496.6 hPa SW 2.6 km/h 5.1 km/h 48 % 0 mm
19:28 -10.7 °C -18.1 °C 34496.6 hPa WSW 5.1 km/h 5.1 km/h 40 % 0 mm
19:33 -10.7 °C -18.1 °C 34496.6 hPa WSW 3.1 km/h 3.7 km/h 40 % 0 mm
19:35 -10.7 °C -18.1 °C 34496.6 hPa WSW 4.2 km/h 4.2 km/h 40 % 0 mm
19:40 -10.7 °C -18.1 °C 34496.6 hPa WSW 5.1 km/h 5.1 km/h 40 % 0 mm
19:45 -10.8 °C -18.2 °C 34496.6 hPa WSW 5.1 km/h 5.1 km/h 40 % 0 mm
19:50 -10.8 °C -18.2 °C 34496.6 hPa SW 6 km/h 6 km/h 40 % 0 mm
19:55 -10.9 °C -18.3 °C 34496.6 hPa Calm   5.1 km/h 40 % 0 mm
20:00 -11.1 °C -18.4 °C 34496.6 hPa WSW 7.6 km/h 7.6 km/h 40 % 0 mm
20:05 -11.1 °C -18.4 °C 34496.6 hPa Calm   7.7 km/h 40 % 0 mm
20:10 -11.2 °C -18.5 °C 34496.6 hPa WSW 5.1 km/h 7.7 km/h 40 % 0 mm
20:15 -11.2 °C -18.5 °C 34496.6 hPa WSW 6.3 km/h 6.3 km/h 40 % 0 mm
20:20 -11.2 °C -18.6 °C 34496.6 hPa WSW 6 km/h 6 km/h 40 % 0 mm
20:25 -11.3 °C -18.4 °C 34496.6 hPa Calm     41 % 0 mm
20:30 -11.4 °C -18.5 °C 34496.6 hPa WSW 3.1 km/h 3.1 km/h 41 % 0 mm
20:35 -11.4 °C -18.6 °C 34496.6 hPa Calm     41 % 0 mm
20:40 -11.4 °C -18.5 °C 34496.6 hPa WSW 6 km/h 6 km/h 41 % 0 mm
20:45 -11.4 °C -18.5 °C 34496.6 hPa WSW 4.2 km/h 4.2 km/h 41 % 0 mm
20:50 -11.5 °C -18.6 °C 34496.6 hPa Calm     41 % 0 mm
20:55 -11.6 °C -18.7 °C 34496.6 hPa Calm     41 % 0 mm
21:00 -11.6 °C -18.7 °C 34496.6 hPa Calm     41 % 0 mm
21:05 -11.7 °C -18.8 °C 34496.6 hPa Calm     41 % 0 mm
21:10 -11.6 °C -18.7 °C 34496.6 hPa WSW 3.1 km/h 3.1 km/h 41 % 0 mm
21:15 -11.6 °C -18.5 °C 34496.6 hPa SSE 6 km/h 6 km/h 42 % 0 mm
21:20 -11.7 °C -18.6 °C 34496.6 hPa SSE 3.1 km/h 3.1 km/h 42 % 0 mm
21:25 -11.7 °C -18.8 °C 34496.6 hPa Calm     41 % 0 mm
21:30 -11.7 °C -18.6 °C 34496.6 hPa ESE 3.1 km/h 3.1 km/h 42 % 0 mm
21:35 -11.8 °C -18.7 °C 34496.6 hPa Calm     42 % 0 mm
21:40 -11.8 °C -18.7 °C 34496.6 hPa Calm     42 % 0 mm
21:45 -11.8 °C -18.7 °C 34496.6 hPa Calm     42 % 0 mm
21:50 -11.8 °C -18.7 °C 34496.6 hPa SW 5.1 km/h   42 % 0 mm
21:55 -12.1 °C -19 °C 34496.6 hPa WSW 6.3 km/h 6.3 km/h 42 % 0 mm
22:00 -12.3 °C -18.9 °C 34496.6 hPa WSW 6 km/h 6 km/h 43 % 0 mm
22:05 -12.3 °C -18.9 °C 34496.6 hPa WSW 3.1 km/h 3.7 km/h 43 % 0 mm
22:10 -12.3 °C -18.9 °C 34496.6 hPa WSW 6 km/h 6 km/h 43 % 0 mm
22:15 -12.4 °C -19.1 °C 34496.6 hPa SW 6.3 km/h 6.3 km/h 43 % 0 mm
22:20 -12.4 °C -19.1 °C 34496.6 hPa WSW 6 km/h 6 km/h 43 % 0 mm
22:25 -12.5 °C -19.2 °C 34496.6 hPa WSW 5.1 km/h   43 % 0 mm
22:30 -12.4 °C -19.1 °C 34496.6 hPa WSW 6 km/h 6 km/h 43 % 0 mm
22:35 -12.5 °C -19 °C 34533.8 hPa WSW 3.1 km/h   44 % 0 mm
22:40 -12.5 °C -19.2 °C 34533.8 hPa WSW 6 km/h 6.3 km/h 43 % 0 mm
22:45 -12.6 °C -19.1 °C 34533.8 hPa WSW 6 km/h 6 km/h 44 % 0 mm
22:50 -12.8 °C -19.2 °C 34496.6 hPa West 6 km/h 6 km/h 44 % 0 mm
22:55 -12.7 °C -19.2 °C 34496.6 hPa WSW 6 km/h 6 km/h 44 % 0 mm
23:00 -12.7 °C -19.1 °C 34496.6 hPa WSW 3.7 km/h 3.7 km/h 44 % 0 mm
23:05 -12.7 °C -19.2 °C 34533.8 hPa WSW 3.1 km/h 3.1 km/h 44 % 0 mm
23:10 -12.8 °C -19.2 °C 34533.8 hPa WSW 3.1 km/h   44 % 0 mm
23:15 -12.8 °C -19.2 °C 34533.8 hPa West 3.1 km/h   44 % 0 mm
23:20 -12.7 °C -19 °C 34496.6 hPa WNW 3.1 km/h   45 % 0 mm
23:25 -12.7 °C -19 °C 34496.6 hPa Calm     45 % 0 mm
23:30 -12.7 °C -19 °C 34496.6 hPa WNW 6 km/h 6 km/h 45 % 0 mm
23:35 -12.7 °C -19 °C 34533.8 hPa WNW 5.1 km/h 5.1 km/h 45 % 0 mm
23:40 -12.7 °C -19 °C 34533.8 hPa WNW 3.1 km/h   45 % 0 mm
23:45 -12.7 °C -18.9 °C 34533.8 hPa WNW 3.7 km/h 3.7 km/h 45 % 0 mm
23:50 -12.7 °C -18.9 °C 34533.8 hPa WNW 6 km/h 6 km/h 45 % 0 mm
23:55 -12.7 °C -19 °C 34533.8 hPa WNW 3.1 km/h 3.1 km/h 45 % 0 mm
Meteo Sesrovires
Elogis d' Weather Underground - 2 mb

Guio original per  Jim McMurry - jmcmurry@mwt.net Adaptat per a la plantilla per  Wim van der Kuil - Leuven-Template.eu

Trobareu la nostra informacio del temps tambe a:

Weather Underground

AWEKAS